Time;durP1;ratioP1;P1;durP2;ratioP2;P2;SDS_P1;SDS_P2;PMS_P1;PMS_P2;Temp;Humidity;BMP_temperature;BMP_pressure;BME280_temperature;BME280_humidity;BME280_pressure;Samples;Min_cycle;Max_cycle;Signal;HPM_P1;HPM_P2
2021/09/14 00:00:07;;;;;;;32.50;22.60;;;;;;;16.88;69.90;99123.40;111883;1200;99620;-81
2021/09/14 00:02:55;;;;;;;33.80;22.70;;;;;;;16.88;70.10;99126.84;112021;1207;96491;-81
2021/09/14 00:05:24;;;;;;;33.10;22.40;;;;;;;16.87;70.04;99125.30;111908;1207;112596;-83
2021/09/14 00:07:52;;;;;;;32.60;21.50;;;;;;;16.87;70.09;99123.33;111927;1208;98895;-81
2021/09/14 00:10:20;;;;;;;31.80;22.00;;;;;;;16.86;70.11;99122.88;111926;1200;107481;-81
2021/09/14 00:12:47;;;;;;;35.00;22.90;;;;;;;16.87;70.14;99121.75;111934;1208;96416;-81
2021/09/14 00:15:18;;;;;;;35.70;23.00;;;;;;;16.87;70.12;99120.43;111925;1199;99028;-80
2021/09/14 00:17:45;;;;;;;32.60;21.70;;;;;;;16.87;70.11;99117.95;111981;1208;112600;-80
2021/09/14 00:20:13;;;;;;;32.30;21.60;;;;;;;16.88;70.20;99126.67;111962;1199;98939;-81
2021/09/14 00:22:41;;;;;;;33.90;23.00;;;;;;;16.89;70.10;99129.61;111942;1208;107506;-82
2021/09/14 00:25:12;;;;;;;31.70;21.20;;;;;;;16.89;70.31;99129.57;111931;1208;99042;-81
2021/09/14 00:27:40;;;;;;;31.70;21.60;;;;;;;16.90;70.42;99128.77;111941;1200;98908;-81
2021/09/14 00:30:12;;;;;;;31.60;21.40;;;;;;;16.90;70.37;99127.09;111933;1203;112528;-82
2021/09/14 00:32:45;;;;;;;33.00;21.80;;;;;;;16.90;70.50;99125.17;111892;1208;96309;-82
2021/09/14 00:35:15;;;;;;;33.40;22.40;;;;;;;16.91;70.39;99125.48;111874;1207;107314;-81
2021/09/14 00:37:43;;;;;;;31.30;20.90;;;;;;;16.91;70.49;99128.34;111922;1202;97396;-81
2021/09/14 00:40:16;;;;;;;33.50;21.10;;;;;;;16.90;70.43;99131.42;111919;1200;98225;-81
2021/09/14 00:42:48;;;;;;;42.20;20.50;;;;;;;16.89;70.46;99134.41;111972;1207;112512;-80
2021/09/14 00:45:16;;;;;;;31.20;20.70;;;;;;;16.88;70.35;99133.27;112010;1207;98898;-81
2021/09/14 00:47:44;;;;;;;33.80;21.10;;;;;;;16.87;70.42;99136.80;111971;1208;107567;-82
2021/09/14 00:50:17;;;;;;;35.90;20.90;;;;;;;16.87;70.61;99134.77;111933;1202;99027;-81
2021/09/14 00:52:45;;;;;;;32.70;20.50;;;;;;;16.88;70.64;99131.33;111973;1207;100145;-81
2021/09/14 00:55:13;;;;;;;31.20;20.80;;;;;;;16.88;70.63;99126.83;111948;1208;112500;-80
2021/09/14 00:57:41;;;;;;;27.90;18.60;;;;;;;16.88;70.68;99130.38;111970;1200;100155;-81
2021/09/14 01:00:11;;;;;;;31.70;20.80;;;;;;;16.90;70.66;99128.46;111955;1207;107496;-82
2021/09/14 01:02:39;;;;;;;31.80;20.80;;;;;;;16.91;70.56;99129.21;111884;1208;98965;-81
2021/09/14 01:05:12;;;;;;;31.00;20.50;;;;;;;16.90;70.79;99127.30;111959;1199;99736;-81
2021/09/14 01:07:41;;;;;;;31.20;20.20;;;;;;;16.91;70.89;99127.19;111863;1208;112236;-80
2021/09/14 01:10:18;;;;;;;30.50;20.10;;;;;;;16.92;70.73;99126.90;111964;1208;99679;-80
2021/09/14 01:12:51;;;;;;;27.00;18.60;;;;;;;16.93;70.65;99121.88;111860;1200;108375;-80
2021/09/14 01:15:19;;;;;;;30.00;18.50;;;;;;;16.92;70.72;99123.85;111897;1207;96379;-80
2021/09/14 01:17:47;;;;;;;28.50;19.00;;;;;;;16.94;70.83;99126.95;111904;1200;98951;-81
2021/09/14 01:20:15;;;;;;;28.30;19.20;;;;;;;16.95;70.98;99122.94;111964;1201;111714;-80
2021/09/14 01:22:43;;;;;;;29.10;18.90;;;;;;;16.95;71.03;99124.67;111978;1208;99020;-81
2021/09/14 01:25:25;;;;;;;28.60;18.50;;;;;;;16.96;70.97;99124.28;112337;1208;108356;-79
2021/09/14 01:28:02;;;;;;;31.60;21.10;;;;;;;16.97;70.87;99122.36;112702;1208;99828;-81
2021/09/14 01:30:33;;;;;;;27.90;19.70;;;;;;;16.98;70.97;99119.31;112882;1199;98907;-78
2021/09/14 01:33:06;;;;;;;27.20;17.60;;;;;;;16.98;70.96;99122.81;112925;1207;112570;-80
2021/09/14 01:35:34;;;;;;;28.40;17.80;;;;;;;17.01;70.90;99126.52;112983;1208;98990;-79
2021/09/14 01:38:07;;;;;;;30.80;19.20;;;;;;;17.03;71.20;99124.02;112979;1199;105130;-81
2021/09/14 01:40:35;;;;;;;26.50;17.30;;;;;;;17.05;71.04;99125.56;112937;1208;99034;-80
2021/09/14 01:43:08;;;;;;;27.60;17.00;;;;;;;17.07;70.94;99129.34;112886;1200;98984;-80
2021/09/14 01:45:36;;;;;;;;;;;;;;;17.06;71.14;99125.11;112896;1208;110195;-80
2021/09/14 01:48:09;;;;;;;27.80;16.30;;;;;;;17.04;71.05;99126.14;112706;1200;99034;-79
2021/09/14 01:50:42;;;;;;;26.50;16.50;;;;;;;17.05;71.14;99126.59;112335;1208;108481;-78
2021/09/14 01:53:14;;;;;;;33.80;17.70;;;;;;;17.06;71.07;99129.91;111929;1208;98330;-79
2021/09/14 01:55:43;;;;;;;27.90;17.40;;;;;;;17.07;71.11;99134.89;111958;1208;99015;-79
2021/09/14 01:58:16;;;;;;;27.90;17.00;;;;;;;17.06;70.97;99134.07;111884;1208;112503;-80
2021/09/14 02:01:34;;;;;;;30.00;18.10;;;;;;;17.06;71.14;99132.30;111858;1208;99000;-80
2021/09/14 02:04:04;;;;;;;30.50;19.40;;;;;;;17.04;71.13;99133.00;111994;1208;107313;-80
2021/09/14 02:56:43;;;;;;;30.00;19.60;;;;;;;16.78;71.59;99139.08;111905;1207;99000;-80
2021/09/14 02:59:12;;;;;;;28.30;18.00;;;;;;;16.76;71.67;99134.27;111904;1207;107495;-81
2021/09/14 03:01:40;;;;;;;31.10;20.60;;;;;;;16.74;71.63;99136.44;111977;1207;98910;-79
2021/09/14 03:04:13;;;;;;;29.00;19.00;;;;;;;16.73;71.48;99134.77;111968;1207;96334;-81
2021/09/14 03:06:45;;;;;;;29.70;20.20;;;;;;;16.71;71.62;99138.71;111943;1207;113380;-80
2021/09/14 03:09:13;;;;;;;30.30;19.70;;;;;;;16.68;71.50;99140.73;111976;1209;98948;-79
2021/09/14 03:11:41;;;;;;;30.40;20.50;;;;;;;16.66;71.61;99146.30;111901;1207;107548;-82
2021/09/14 03:14:09;;;;;;;35.50;21.80;;;;;;;16.65;71.76;99150.67;112005;1200;98955;-81
2021/09/14 03:16:36;;;;;;;32.20;19.90;;;;;;;16.63;71.63;99150.73;111972;1203;98942;-83
2021/09/14 03:19:09;;;;;;;32.70;20.70;;;;;;;16.58;71.71;99150.78;111957;1207;112529;-79
2021/09/14 03:21:37;;;;;;;33.80;22.20;;;;;;;16.57;71.78;99148.63;111987;1207;98864;-84
2021/09/14 03:24:07;;;;;;;30.80;20.70;;;;;;;16.56;71.67;99149.42;112011;1207;107344;-83
2021/09/14 03:26:38;;;;;;;35.70;21.60;;;;;;;16.54;71.90;99147.98;111883;1206;99625;-81
2021/09/14 03:29:05;;;;;;;34.10;21.00;;;;;;;16.54;71.89;99147.50;111948;1201;99129;-83
2021/09/14 03:31:36;;;;;;;36.40;22.40;;;;;;;16.51;71.72;99147.55;111915;1207;112514;-82
2021/09/14 03:34:10;;;;;;;34.50;23.20;;;;;;;16.48;71.96;99145.90;111916;1207;98938;-80
2021/09/14 03:36:43;;;;;;;33.80;21.70;;;;;;;16.46;71.79;99146.27;111974;1200;107580;-80
2021/09/14 03:39:15;;;;;;;;;;;;;;;16.43;71.96;99147.25;111928;1200;99044;-81
2021/09/14 03:41:47;;;;;;;32.60;21.50;;;;;;;16.40;72.06;99149.85;111949;1202;97796;-81
2021/09/14 03:44:15;;;;;;;32.50;22.50;;;;;;;16.40;71.97;99153.13;111967;1201;112475;-79
2021/09/14 03:46:43;;;;;;;32.00;21.10;;;;;;;16.38;71.93;99154.86;111914;1207;99090;-81
2021/09/14 03:49:11;;;;;;;29.60;21.50;;;;;;;16.36;71.99;99155.04;111931;1207;107188;-82
2021/09/14 03:51:40;;;;;;;34.60;23.50;;;;;;;16.34;72.04;99153.33;111881;1201;98922;-83
2021/09/14 03:54:12;;;;;;;36.10;23.80;;;;;;;16.32;72.20;99155.15;111928;1209;99064;-82
2021/09/14 03:56:40;;;;;;;34.80;21.80;;;;;;;16.30;72.06;99155.08;111982;1200;112315;-80
2021/09/14 03:59:09;;;;;;;32.60;22.00;;;;;;;16.31;72.19;99157.38;111937;1207;97730;-82
2021/09/14 04:01:51;;;;;;;34.20;21.20;;;;;;;16.32;72.24;99159.42;111923;1207;107452;-82
2021/09/14 04:04:34;;;;;;;34.40;21.10;;;;;;;16.33;72.16;99162.73;112018;1200;99075;-84
2021/09/14 04:07:23;;;;;;;35.50;20.70;;;;;;;16.32;72.27;99164.20;111930;1207;98935;-81
2021/09/14 04:09:51;;;;;;;32.50;21.60;;;;;;;16.32;72.24;99168.46;111897;1207;112451;-81
2021/09/14 04:12:20;;;;;;;35.50;22.10;;;;;;;16.33;72.14;99171.09;111904;1208;98926;-88
2021/09/14 04:14:48;;;;;;;32.50;22.10;;;;;;;16.33;72.28;99173.23;111858;1208;107700;-79
2021/09/14 04:17:16;;;;;;;33.50;20.90;;;;;;;16.34;72.26;99174.77;111966;1202;98944;-84
2021/09/14 04:19:46;;;;;;;31.20;21.20;;;;;;;16.34;72.32;99176.03;111967;1201;99071;-79
2021/09/14 04:22:14;;;;;;;30.70;20.90;;;;;;;16.34;72.34;99178.66;111921;1209;112467;-75
2021/09/14 04:24:42;;;;;;;39.10;23.70;;;;;;;16.34;72.32;99178.13;111985;1208;98940;-76
2021/09/14 04:27:10;;;;;;;33.20;22.50;;;;;;;16.33;72.27;99177.30;111955;1209;107463;-76
2021/09/14 04:29:43;;;;;;;36.40;22.90;;;;;;;16.32;72.31;99183.16;112011;1203;99044;-76
2021/09/14 04:32:11;;;;;;;31.50;21.40;;;;;;;16.31;72.33;99182.58;111948;1209;99081;-77
2021/09/14 04:34:38;;;;;;;33.30;22.20;;;;;;;16.31;72.45;99185.09;111996;1200;112471;-75
2021/09/14 04:37:06;;;;;;;37.00;22.90;;;;;;;16.29;72.20;99184.13;111988;1207;99067;-77
2021/09/14 04:39:34;;;;;;;38.10;23.40;;;;;;;16.29;72.32;99184.55;111971;1200;107501;-75
2021/09/14 04:42:02;;;;;;;34.60;22.60;;;;;;;16.29;72.48;99185.77;111977;1207;96544;-75
2021/09/14 04:44:30;;;;;;;33.80;21.80;;;;;;;16.30;72.36;99187.69;112007;1200;96597;-76
2021/09/14 04:46:57;;;;;;;35.90;24.30;;;;;;;16.31;72.47;99192.43;112002;1207;112685;-76
2021/09/14 04:49:25;;;;;;;35.20;24.20;;;;;;;16.30;72.55;99190.35;111958;1208;98932;-76
2021/09/14 04:52:03;;;;;;;37.80;24.60;;;;;;;16.30;72.55;99195.04;111938;1201;107396;-76
2021/09/14 04:54:42;;;;;;;34.90;23.40;;;;;;;16.30;72.48;99195.23;111995;1207;99012;-76
2021/09/14 04:57:14;;;;;;;34.90;23.00;;;;;;;16.30;72.59;99198.03;111990;1200;99025;-75
2021/09/14 04:59:42;;;;;;;35.90;23.60;;;;;;;16.32;72.64;99196.43;111987;1200;112512;-76
2021/09/14 05:02:10;;;;;;;37.90;23.30;;;;;;;16.33;72.65;99190.59;112035;1200;98872;-77
2021/09/14 05:04:43;;;;;;;36.00;23.60;;;;;;;16.36;72.71;99194.23;111986;1207;109247;-78
2021/09/14 05:07:10;;;;;;;35.00;23.40;;;;;;;16.40;72.81;99198.17;111994;1207;98954;-76
2021/09/14 05:09:38;;;;;;;35.90;24.10;;;;;;;16.42;72.68;99196.25;111975;1207;99052;-74
2021/09/14 05:12:06;;;;;;;34.50;23.60;;;;;;;16.43;72.60;99198.59;111946;1201;112465;-77
2021/09/14 05:14:34;;;;;;;35.80;23.70;;;;;;;16.46;72.74;99199.63;111998;1207;99065;-77
2021/09/14 05:17:03;;;;;;;35.70;22.60;;;;;;;16.48;72.68;99202.98;112010;1207;107497;-76
2021/09/14 05:19:35;;;;;;;36.40;24.80;;;;;;;16.50;72.61;99202.91;111953;1207;99010;-76
2021/09/14 05:22:12;;;;;;;40.10;25.10;;;;;;;16.53;72.72;99202.50;112006;1207;99035;-77
2021/09/14 05:24:40;;;;;;;40.00;25.20;;;;;;;16.57;72.77;99198.00;111981;1207;112500;-76
2021/09/14 05:27:08;;;;;;;40.00;25.50;;;;;;;16.61;72.72;99196.41;112008;1203;96475;-76
2021/09/14 05:29:36;;;;;;;36.20;22.80;;;;;;;16.65;72.74;99199.23;111991;1207;107472;-76
2021/09/14 05:32:07;;;;;;;34.70;23.50;;;;;;;16.71;72.85;99203.69;111926;1207;96416;-74
2021/09/14 05:34:34;;;;;;;39.00;22.90;;;;;;;16.77;72.89;99202.58;111981;1202;99817;-75
2021/09/14 05:37:02;;;;;;;37.10;23.80;;;;;;;16.82;72.64;99202.02;111967;1207;112440;-75
2021/09/14 05:39:30;;;;;;;35.20;22.80;;;;;;;16.86;72.88;99204.41;111988;1204;98989;-73
2021/09/14 05:41:58;;;;;;;34.70;22.60;;;;;;;16.91;72.94;99206.02;112018;1207;107559;-77
2021/09/14 05:44:26;;;;;;;37.50;23.20;;;;;;;16.98;72.75;99211.16;112051;1200;98912;-77
2021/09/14 05:46:53;;;;;;;35.00;22.70;;;;;;;17.04;72.78;99214.84;111980;1207;99012;-77
2021/09/14 05:49:21;;;;;;;35.50;22.20;;;;;;;17.11;72.83;99219.69;111990;1207;112640;-76
2021/09/14 05:51:49;;;;;;;33.40;22.80;;;;;;;17.19;72.84;99218.27;111898;1207;97415;-74
2021/09/14 05:54:19;;;;;;;33.90;22.10;;;;;;;17.24;72.86;99214.33;111930;1207;107573;-76
2021/09/14 05:56:47;;;;;;;39.30;24.30;;;;;;;17.27;72.77;99216.58;112111;1208;97823;-76
2021/09/14 05:59:20;;;;;;;35.40;23.70;;;;;;;17.28;72.75;99216.02;112014;1208;96527;-76
2021/09/14 06:01:47;;;;;;;35.90;24.60;;;;;;;17.31;72.72;99217.09;111955;1207;112121;-77
2021/09/14 06:04:20;;;;;;;36.80;24.60;;;;;;;17.36;72.79;99212.86;111991;1202;99055;-77
2021/09/14 06:06:52;;;;;;;35.70;23.30;;;;;;;17.39;72.70;99216.06;111889;1207;107552;-77
2021/09/14 06:09:20;;;;;;;36.30;22.80;;;;;;;17.43;72.67;99218.25;112160;1199;99002;-76
2021/09/14 06:11:48;;;;;;;33.10;22.00;;;;;;;17.47;72.80;99223.73;111872;1205;96505;-77
2021/09/14 06:14:16;;;;;;;30.70;20.10;;;;;;;17.51;72.76;99222.27;112081;1201;112514;-76
2021/09/14 06:16:46;;;;;;;31.70;21.20;;;;;;;17.55;72.78;99229.73;112106;1201;99170;-76
2021/09/14 06:19:14;;;;;;;34.40;21.10;;;;;;;17.57;72.64;99228.51;111908;1209;107461;-75
2021/09/14 06:21:46;;;;;;;36.50;23.30;;;;;;;17.57;72.67;99229.95;111909;1208;98940;-75
2021/09/14 06:24:14;;;;;;;35.70;21.90;;;;;;;17.58;72.63;99231.50;111982;1210;96382;-75
2021/09/14 06:26:42;;;;;;;30.60;21.00;;;;;;;17.58;72.71;99230.39;111943;1208;112405;-77
2021/09/14 06:29:10;;;;;;;33.50;21.20;;;;;;;17.58;72.58;99223.94;111913;1206;98798;-76
2021/09/14 06:31:38;;;;;;;36.70;19.80;;;;;;;17.55;72.45;99228.69;111924;1209;107446;-75
2021/09/14 06:34:06;;;;;;;32.20;19.80;;;;;;;17.56;72.64;99224.15;111926;1202;99114;-77
2021/09/14 06:36:33;;;;;;;32.00;19.20;;;;;;;17.58;72.70;99224.65;112006;1206;97835;-77
2021/09/14 06:39:03;;;;;;;31.70;19.10;;;;;;;17.61;72.57;99220.91;111874;1206;112373;-76
2021/09/14 06:41:34;;;;;;;39.90;27.10;;;;;;;17.64;72.78;99221.92;111972;1210;98996;-75
2021/09/14 06:44:04;;;;;;;34.20;21.70;;;;;;;17.66;72.64;99222.98;111965;1208;107436;-76
2021/09/14 06:46:32;;;;;;;28.50;18.30;;;;;;;17.69;72.54;99225.77;111896;1208;98935;-77
2021/09/14 06:49:00;;;;;;;29.10;18.50;;;;;;;17.72;72.63;99227.00;111982;1202;99002;-75
2021/09/14 06:51:28;;;;;;;30.20;17.30;;;;;;;17.76;72.47;99231.27;111955;1200;113011;-76
2021/09/14 06:53:56;;;;;;;32.10;16.30;;;;;;;17.81;72.46;99229.90;111926;1208;97086;-75
2021/09/14 06:56:29;;;;;;;26.00;15.20;;;;;;;17.84;72.36;99230.13;111961;1210;107481;-76
2021/09/14 06:58:57;;;;;;;27.20;16.80;;;;;;;17.88;72.34;99224.75;111927;1208;99021;-76
2021/09/14 07:01:26;;;;;;;27.60;16.90;;;;;;;17.91;72.42;99225.70;111978;1208;99029;-77
2021/09/14 07:03:58;;;;;;;29.00;16.50;;;;;;;17.93;72.38;99224.19;111884;1209;112555;-76
2021/09/14 07:06:26;;;;;;;27.90;17.00;;;;;;;17.95;72.15;99226.86;111968;1206;99064;-76
2021/09/14 07:08:54;;;;;;;28.70;17.30;;;;;;;17.93;72.00;99232.09;111925;1208;107439;-75
2021/09/14 07:11:22;;;;;;;26.70;16.20;;;;;;;17.91;72.17;99233.39;111958;1201;98968;-75
2021/09/14 07:13:57;;;;;;;29.90;16.60;;;;;;;17.95;72.23;99231.06;111954;1209;99361;-75
2021/09/14 07:16:30;;;;;;;27.90;17.30;;;;;;;17.98;72.12;99232.11;111937;1208;112549;-75
2021/09/14 07:18:58;;;;;;;26.30;15.90;;;;;;;18.05;72.27;99233.86;111936;1200;99041;-75
2021/09/14 07:21:30;;;;;;;28.70;16.50;;;;;;;18.11;72.21;99236.27;111953;1207;109629;-75
2021/09/14 07:23:58;;;;;;;26.80;15.70;;;;;;;18.15;71.99;99245.52;112031;1202;98876;-75
2021/09/14 07:26:26;;;;;;;28.60;16.20;;;;;;;18.18;71.98;99242.55;112017;1201;96417;-76
2021/09/14 07:28:58;;;;;;;25.90;15.30;;;;;;;18.29;72.02;99246.64;112077;1202;113381;-77
2021/09/14 07:31:30;;;;;;;26.60;13.50;;;;;;;19.00;71.65;99248.64;111981;1203;98892;-77
2021/09/14 07:34:02;;;;;;;25.10;14.40;;;;;;;20.95;70.60;99246.66;111972;1208;107891;-77
2021/09/14 07:36:30;;;;;;;25.70;14.10;;;;;;;22.84;69.86;99248.83;112354;1200;99027;-78
2021/09/14 07:38:58;;;;;;;22.30;13.30;;;;;;;24.50;69.54;99246.74;112020;1202;99025;-78
2021/09/14 07:41:26;;;;;;;20.90;12.30;;;;;;;25.95;69.22;99237.58;112018;1207;112496;-77
2021/09/14 07:43:53;;;;;;;19.60;10.30;;;;;;;27.27;68.78;99236.82;111993;1203;99064;-78
2021/09/14 07:46:21;;;;;;;20.60;11.70;;;;;;;28.40;68.41;99242.50;111973;1203;107464;-77
2021/09/14 07:48:49;;;;;;;18.80;9.70;;;;;;;29.39;67.77;99242.29;112006;1211;96742;-75
2021/09/14 07:51:17;;;;;;;18.40;9.00;;;;;;;30.37;67.37;99241.77;112031;1202;99050;-76
2021/09/14 07:53:49;;;;;;;17.90;8.90;;;;;;;31.19;67.68;99244.83;112012;1207;103871;-75
2021/09/14 07:56:17;;;;;;;18.60;10.10;;;;;;;31.66;66.54;99245.22;112047;1203;98884;-77
2021/09/14 07:58:45;;;;;;;15.10;7.90;;;;;;;32.33;66.40;99243.77;112013;1207;98904;-77
2021/09/14 08:01:13;;;;;;;17.10;7.60;;;;;;;33.09;65.69;99244.44;111952;1201;99040;-76
2021/09/14 08:03:41;;;;;;;14.40;6.80;;;;;;;33.81;65.31;99243.89;112062;1199;99043;-77
2021/09/14 08:06:08;;;;;;;11.00;6.50;;;;;;;34.35;64.98;99244.52;112021;1203;103928;-76
2021/09/14 08:08:36;;;;;;;14.90;7.30;;;;;;;34.72;65.04;99243.14;112198;1203;99434;-76
2021/09/14 08:11:09;;;;;;;13.50;6.70;;;;;;;34.74;64.10;99245.14;111992;1208;99004;-76
2021/09/14 08:13:42;;;;;;;12.70;6.20;;;;;;;34.47;63.78;99245.55;111969;1206;98948;-76
2021/09/14 08:16:12;;;;;;;13.20;6.30;;;;;;;34.28;63.62;99247.30;111995;1207;98932;-76
2021/09/14 08:18:40;;;;;;;10.30;6.30;;;;;;;33.89;63.45;99245.90;112007;1203;103910;-77
2021/09/14 08:21:08;;;;;;;12.50;6.50;;;;;;;33.59;62.91;99247.64;112062;1200;99453;-75
2021/09/14 08:23:36;;;;;;;13.50;6.20;;;;;;;33.46;62.23;99246.23;111944;1208;99017;-75
2021/09/14 08:26:04;;;;;;;14.90;6.80;;;;;;;33.68;61.93;99246.40;111941;1206;98887;-76
2021/09/14 08:28:36;;;;;;;14.70;6.60;;;;;;;34.14;61.41;99243.75;112415;1199;98361;-75
2021/09/14 08:31:04;;;;;;;14.70;6.80;;;;;;;34.24;60.68;99244.45;111931;1207;102551;-76
2021/09/14 08:33:32;;;;;;;13.60;6.20;;;;;;;34.28;60.44;99248.90;111965;1201;99507;-74
2021/09/14 08:36:07;;;;;;;11.90;5.90;;;;;;;34.18;59.73;99246.98;111993;1208;98932;-76
2021/09/14 08:38:39;;;;;;;10.60;5.40;;;;;;;33.58;59.11;99246.27;111945;1208;98970;-76
2021/09/14 08:41:07;;;;;;;13.20;5.50;;;;;;;33.48;58.33;99246.08;112069;1203;99065;-76
2021/09/14 08:43:49;;;;;;;6.70;4.00;;;;;;;32.95;57.80;99244.92;112008;1208;103935;-76
2021/09/14 08:46:23;;;;;;;15.00;5.20;;;;;;;32.27;57.32;99247.01;112037;1209;98951;-75
2021/09/14 08:48:57;;;;;;;10.30;4.80;;;;;;;31.75;56.80;99245.55;112003;1208;99220;-74
2021/09/14 08:51:25;;;;;;;11.20;4.70;;;;;;;31.18;56.74;99247.67;112006;1209;99102;-76
2021/09/14 08:53:54;;;;;;;9.80;5.30;;;;;;;30.67;56.17;99249.96;112009;1206;99688;-74
2021/09/14 08:56:27;;;;;;;12.80;5.80;;;;;;;30.20;55.75;99254.90;111959;1200;103999;-75
2021/09/14 08:59:06;;;;;;;11.80;5.40;;;;;;;29.76;55.39;99252.20;111926;1199;100042;-77
2021/09/14 09:01:34;;;;;;;12.20;4.90;;;;;;;29.45;54.95;99252.96;111984;1204;107302;-74
2021/09/14 09:04:08;;;;;;;10.80;5.10;;;;;;;29.18;54.98;99256.88;112046;1199;98961;-74
2021/09/14 09:06:41;;;;;;;9.60;4.90;;;;;;;28.98;54.18;99254.84;112022;1206;99038;-74
2021/09/14 09:09:18;;;;;;;15.60;5.30;;;;;;;28.87;54.03;99251.54;111935;1201;112055;-74
2021/09/14 09:11:57;;;;;;;10.50;5.40;;;;;;;28.78;53.65;99254.46;112536;1199;99392;-74
2021/09/14 09:14:55;;;;;;;9.50;5.00;;;;;;;28.55;53.17;99256.50;112030;1208;107435;-74
2021/09/14 09:17:27;;;;;;;15.90;6.00;;;;;;;28.22;52.82;99260.05;112019;1203;97456;-75
2021/09/14 09:20:03;;;;;;;11.10;5.20;;;;;;;27.97;52.62;99257.77;112077;1203;98935;-74
2021/09/14 09:22:31;;;;;;;11.40;5.20;;;;;;;27.82;52.58;99257.88;111974;1209;112445;-74
2021/09/14 09:25:00;;;;;;;10.40;5.20;;;;;;;27.80;52.46;99255.66;112353;1199;99172;-75
2021/09/14 09:27:32;;;;;;;14.90;5.50;;;;;;;27.66;52.21;99252.62;111978;1203;107394;-74
2021/09/14 09:30:08;;;;;;;12.80;5.50;;;;;;;27.57;52.17;99253.77;112085;1202;99005;-75
2021/09/14 09:32:46;;;;;;;11.10;5.50;;;;;;;27.82;51.70;99250.09;111954;1208;97481;-75
2021/09/14 09:35:34;;;;;;;11.70;5.30;;;;;;;27.82;51.36;99247.27;111936;1202;112539;-76
2021/09/14 09:38:07;;;;;;;12.00;5.60;;;;;;;27.84;51.44;99252.30;111959;1209;99292;-75
2021/09/14 09:40:44;;;;;;;11.70;5.50;;;;;;;28.04;51.38;99248.54;111990;1209;107494;-74
2021/09/14 09:43:13;;;;;;;10.20;5.60;;;;;;;28.23;51.29;99254.40;111891;1202;99034;-74
2021/09/14 09:45:48;;;;;;;13.80;6.70;;;;;;;28.27;50.99;99251.73;111970;1200;99050;-76
2021/09/14 09:48:20;;;;;;;16.20;7.60;;;;;;;28.07;50.44;99247.14;111980;1206;112499;-74
2021/09/14 09:50:48;;;;;;;16.50;6.50;;;;;;;27.66;50.20;99248.08;111900;1209;97561;-74
2021/09/14 09:53:16;;;;;;;12.30;5.50;;;;;;;27.39;50.44;99246.16;112002;1200;107470;-75
2021/09/14 09:55:50;;;;;;;12.90;5.80;;;;;;;27.24;50.46;99246.63;111972;1208;96479;-74
2021/09/14 09:58:18;;;;;;;14.50;5.50;;;;;;;27.16;50.26;99247.88;112010;1208;96409;-73
2021/09/14 10:01:05;;;;;;;13.20;6.10;;;;;;;26.94;49.80;99247.54;111946;1202;111979;-74
2021/09/14 10:03:54;;;;;;;13.40;6.30;;;;;;;26.73;49.66;99248.24;111963;1208;96397;-74
2021/09/14 10:06:31;;;;;;;19.80;7.10;;;;;;;26.55;49.72;99250.86;111936;1208;107464;-74
2021/09/14 10:09:03;;;;;;;11.60;6.30;;;;;;;26.32;49.68;99250.92;111935;1208;98944;-74
2021/09/14 10:11:37;;;;;;;;;;;;;;;26.04;49.37;99255.80;111953;1202;99044;-74
2021/09/14 10:14:12;;;;;;;13.40;6.70;;;;;;;25.78;49.31;99252.75;111990;1208;111996;-74
2021/09/14 10:16:49;;;;;;;13.70;6.30;;;;;;;25.62;49.22;99255.90;111970;1208;98932;-74
2021/09/14 10:19:33;;;;;;;12.80;6.10;;;;;;;25.50;49.25;99254.52;111868;1210;106577;-74
2021/09/14 10:22:10;;;;;;;12.80;6.00;;;;;;;25.33;49.29;99259.13;111951;1202;99774;-71
2021/09/14 10:24:57;;;;;;;14.60;6.40;;;;;;;25.17;49.30;99259.06;112005;1202;99053;-74
2021/09/14 10:27:47;;;;;;;13.50;6.20;;;;;;;25.00;49.20;99259.31;111903;1208;112441;-73
2021/09/14 10:30:24;;;;;;;12.80;6.00;;;;;;;24.79;49.07;99260.36;112056;1207;96520;-76
2021/09/14 10:32:53;;;;;;;14.70;6.00;;;;;;;24.64;49.12;99258.98;112011;1207;107537;-73
2021/09/14 10:35:27;;;;;;;14.10;6.10;;;;;;;24.57;49.10;99260.50;112024;1206;99138;-74
2021/09/14 10:38:12;;;;;;;15.40;7.00;;;;;;;24.54;49.08;99264.44;112012;1203;99083;-75
2021/09/14 10:40:52;;;;;;;15.40;7.70;;;;;;;24.57;48.98;99260.63;112023;1208;112494;-75
2021/09/14 10:43:33;;;;;;;16.70;7.90;;;;;;;24.57;49.03;99261.67;111978;1200;98940;-75
2021/09/14 10:46:02;;;;;;;18.10;7.50;;;;;;;24.65;49.01;99260.92;111995;1199;107484;-73
2021/09/14 10:48:47;;;;;;;16.40;7.60;;;;;;;24.70;48.90;99258.44;111980;1203;99018;-74
2021/09/14 10:51:21;;;;;;;18.70;7.70;;;;;;;24.62;48.67;99258.84;112029;1208;99012;-71
2021/09/14 10:53:59;;;;;;;14.70;6.60;;;;;;;24.53;48.14;99260.11;111965;1208;112511;-73
2021/09/14 10:56:33;;;;;;;15.60;6.90;;;;;;;24.27;48.34;99265.16;112001;1205;98922;-75
2021/09/14 10:59:01;;;;;;;13.40;6.40;;;;;;;24.15;48.40;99266.01;112071;1208;107450;-74
2021/09/14 11:01:31;;;;;;;12.70;5.90;;;;;;;24.15;48.64;99265.77;112052;1201;98975;-74
2021/09/14 11:04:02;;;;;;;17.00;5.90;;;;;;;24.18;48.61;99267.59;112024;1202;99102;-74
2021/09/14 11:06:31;;;;;;;9.60;5.30;;;;;;;24.21;48.55;99268.41;111986;1203;112497;-76
2021/09/14 11:09:06;;;;;;;10.90;5.60;;;;;;;24.31;48.72;99266.61;112333;1200;99574;-74
2021/09/14 11:11:33;;;;;;;14.00;5.40;;;;;;;24.43;48.69;99266.98;111833;1206;107472;-76
2021/09/14 11:14:06;;;;;;;13.00;5.40;;;;;;;24.60;48.69;99269.00;111879;1209;96409;-75
2021/09/14 11:16:36;;;;;;;12.50;5.40;;;;;;;24.74;48.65;99264.67;112297;1199;99007;-75
2021/09/14 11:19:08;;;;;;;12.70;5.10;;;;;;;24.93;48.79;99266.80;111994;1207;112463;-74
2021/09/14 11:21:45;;;;;;;15.10;5.60;;;;;;;25.08;48.74;99263.02;112062;1208;98950;-74
2021/09/14 11:24:21;;;;;;;11.30;4.80;;;;;;;25.07;48.66;99263.45;111872;1202;106783;-76
2021/09/14 11:26:57;;;;;;;13.70;5.70;;;;;;;25.06;48.69;99269.10;111905;1209;98933;-74
2021/09/14 11:29:26;;;;;;;12.10;5.30;;;;;;;24.95;48.60;99264.61;112112;1207;96446;-75
2021/09/14 11:31:57;;;;;;;16.10;6.20;;;;;;;24.85;48.75;99268.01;112034;1210;112644;-79
2021/09/14 11:34:26;;;;;;;15.50;6.30;;;;;;;24.71;48.59;99262.45;111991;1203;98932;-75
2021/09/14 11:36:59;;;;;;;13.50;5.40;;;;;;;24.53;48.64;99258.48;112196;1199;108014;-73
2021/09/14 11:39:38;;;;;;;14.30;6.00;;;;;;;24.41;48.72;99258.66;111988;1199;99686;-77
2021/09/14 11:42:09;;;;;;;11.80;5.70;;;;;;;24.29;48.57;99257.72;112077;1199;96392;-77
2021/09/14 11:44:43;;;;;;;14.70;5.70;;;;;;;24.18;48.67;99256.73;112041;1206;112424;-73
2021/09/14 11:47:24;;;;;;;13.00;5.60;;;;;;;24.09;48.65;99252.92;112021;1206;99020;-78
2021/09/14 11:49:57;;;;;;;14.10;5.80;;;;;;;24.02;48.79;99249.69;112016;1206;107452;-79
2021/09/14 11:52:29;;;;;;;14.10;5.70;;;;;;;23.98;48.74;99250.20;111982;1200;99049;-79
2021/09/14 11:54:57;;;;;;;11.00;5.10;;;;;;;23.89;48.67;99250.33;111970;1203;98953;-76
2021/09/14 11:57:25;;;;;;;9.10;4.90;;;;;;;23.85;48.83;99248.45;111995;1203;112481;-72
2021/09/14 12:00:10;;;;;;;15.40;5.50;;;;;;;23.83;48.76;99247.67;112010;1207;97482;-75
2021/09/14 12:02:51;;;;;;;13.90;5.80;;;;;;;23.79;48.76;99246.42;111877;1207;107599;-73
2021/09/14 12:05:21;;;;;;;10.90;5.20;;;;;;;23.75;48.77;99240.66;111977;1207;99015;-74
2021/09/14 12:07:57;;;;;;;14.10;5.60;;;;;;;23.76;48.85;99237.50;111934;1202;99636;-71
2021/09/14 12:10:27;;;;;;;14.20;5.70;;;;;;;23.73;48.80;99236.80;111904;1206;112757;-74
2021/09/14 12:12:56;;;;;;;13.00;5.50;;;;;;;23.71;48.90;99233.63;111903;1206;99087;-73
2021/09/14 12:15:31;;;;;;;15.20;6.20;;;;;;;23.71;48.94;99236.15;111997;1208;107170;-75
2021/09/14 12:18:05;;;;;;;14.90;5.80;;;;;;;23.66;48.74;99234.55;111971;1207;98975;-73